Time;durP1;ratioP1;P1;durP2;ratioP2;P2;SDS_P1;SDS_P2;PMS_P1;PMS_P2;Temp;Humidity;BMP_temperature;BMP_pressure;BME280_temperature;BME280_humidity;BME280_pressure;Samples;Min_cycle;Max_cycle;Signal;HPM_P1;HPM_P2
2023/10/09 00:02:14;;;;;;;11.98;7.30;;;15.10;99.90;;;;;;6273779;22;20370;-90
2023/10/09 00:04:45;;;;;;;13.23;7.30;;;15.40;99.90;;;;;;6246052;22;20378;-89
2023/10/09 00:07:11;;;;;;;12.83;7.60;;;15.00;99.90;;;;;;6273756;22;20878;-89
2023/10/09 00:09:47;;;;;;;14.65;7.63;;;15.30;99.90;;;;;;6246577;22;20410;-88
2023/10/09 00:12:22;;;;;;;14.88;8.00;;;15.40;99.90;;;;;;6273105;22;20401;-90
2023/10/09 00:14:50;;;;;;;15.50;8.43;;;15.10;99.90;;;;;;6248127;22;20358;-89
2023/10/09 00:19:49;;;;;;;15.90;9.30;;;15.10;99.90;;;;;;6273930;22;20371;-89
2023/10/09 00:25:00;;;;;;;18.53;10.30;;;15.10;99.90;;;;;;6273484;22;20457;-90
2023/10/09 00:27:31;;;;;;;20.02;10.02;;;15.40;99.90;;;;;;6247640;22;20949;-89
2023/10/09 00:29:59;;;;;;;18.77;10.23;;;15.40;99.90;;;;;;6271192;22;20359;-89
2023/10/09 00:32:26;;;;;;;18.48;10.90;;;15.00;99.90;;;;;;6273664;22;20398;-88
2023/10/09 00:34:53;;;;;;;17.70;10.70;;;15.00;99.90;;;;;;6271308;22;20445;-89
2023/10/09 00:37:26;;;;;;;19.00;11.27;;;15.10;99.90;;;;;;6273406;22;20389;-89
2023/10/09 00:39:56;;;;;;;21.40;12.10;;;15.00;99.90;;;;;;6246393;22;20406;-89
2023/10/09 00:42:29;;;;;;;23.38;13.05;;;15.10;99.90;;;;;;6273555;22;20374;-90
2023/10/09 00:45:07;;;;;;;22.85;12.20;;;15.10;99.90;;;;;;6273494;22;20374;-89
2023/10/09 00:47:34;;;;;;;23.40;12.77;;;15.00;99.90;;;;;;6246327;22;20386;-89
2023/10/09 00:50:10;;;;;;;28.10;14.20;;;15.40;99.90;;;;;;6247871;22;20444;-90
2023/10/09 00:52:48;;;;;;;27.90;14.65;;;15.00;99.90;;;;;;6271466;22;20861;-89
2023/10/09 00:55:20;;;;;;;28.33;14.10;;;15.30;99.90;;;;;;6273459;22;20366;-90
2023/10/09 00:57:50;;;;;;;27.77;14.20;;;15.10;99.90;;;;;;6273204;22;20485;-88
2023/10/09 01:05:51;;;;;;;33.70;17.52;;;15.20;99.90;;;;;;6271304;22;20370;-89
2023/10/09 01:08:25;;;;;;;34.67;17.73;;;15.00;99.90;;;;;;6272821;22;20799;-90
2023/10/09 01:10:56;;;;;;;37.88;18.85;;;15.10;99.90;;;;;;6273045;22;20370;-88
2023/10/09 01:13:28;;;;;;;32.78;18.95;;;15.10;99.90;;;;;;6271840;22;20446;-89
2023/10/09 01:15:54;;;;;;;34.08;18.80;;;15.00;99.90;;;;;;6273341;22;20450;-89
2023/10/09 01:18:20;;;;;;;34.67;19.73;;;15.00;99.90;;;;;;6271674;22;20370;-89
2023/10/09 01:20:45;;;;;;;39.83;20.02;;;15.00;99.90;;;;;;6247555;22;20432;-89
2023/10/09 01:23:12;;;;;;;36.67;20.33;;;15.00;99.90;;;;;;6245473;22;20374;-89
2023/10/09 01:25:49;;;;;;;39.88;22.05;;;15.40;99.90;;;;;;6272486;22;20462;-89
2023/10/09 01:28:16;;;;;;;38.35;21.52;;;15.00;99.90;;;;;;6272853;22;20906;-89
2023/10/09 01:30:45;;;;;;;39.22;21.67;;;15.20;99.90;;;;;;6271400;22;20369;-89
2023/10/09 01:33:24;;;;;;;42.70;22.93;;;15.10;99.90;;;;;;6273172;22;20390;-89
2023/10/09 01:35:54;;;;;;;45.03;24.08;;;15.30;99.90;;;;;;6270846;22;20362;-89
2023/10/09 01:38:30;;;;;;;42.33;23.88;;;15.00;99.90;;;;;;6272963;22;20394;-90
2023/10/09 01:41:03;;;;;;;42.10;22.73;;;15.00;99.90;;;;;;6272100;22;20407;-89
2023/10/09 01:43:29;;;;;;;45.47;24.48;;;15.10;99.90;;;;;;6245671;22;20366;-90
2023/10/09 01:45:55;;;;;;;49.03;27.33;;;15.20;99.90;;;;;;6273307;22;20374;-90
2023/10/09 01:48:24;;;;;;;48.60;26.40;;;15.40;99.90;;;;;;6270350;22;20393;-90
2023/10/09 01:50:49;;;;;;;53.13;27.67;;;14.90;99.90;;;;;;6272603;22;20412;-90
2023/10/09 01:53:18;;;;;;;53.07;28.50;;;15.50;99.90;;;;;;6245120;22;20783;-88
2023/10/09 01:55:45;;;;;;;49.50;27.65;;;15.40;99.90;;;;;;6272878;22;20395;-90
2023/10/09 01:58:24;;;;;;;51.10;27.17;;;15.00;99.90;;;;;;6272249;22;20362;-89
2023/10/09 02:01:02;;;;;;;52.50;28.63;;;15.30;99.90;;;;;;6245669;22;20677;-90
2023/10/09 02:03:29;;;;;;;53.90;29.02;;;15.30;99.90;;;;;;6272855;22;20362;-90
2023/10/09 02:06:03;;;;;;;55.67;31.58;;;15.30;99.90;;;;;;6270585;22;20366;-90
2023/10/09 02:08:29;;;;;;;61.20;32.42;;;15.10;99.90;;;;;;6272735;22;20387;-91
2023/10/09 02:10:56;;;;;;;58.63;31.80;;;15.20;99.90;;;;;;6271358;22;20855;-89
2023/10/09 02:13:34;;;;;;;58.25;32.33;;;15.10;99.90;;;;;;6246667;22;20405;-90
2023/10/09 02:16:14;;;;;;;62.97;33.25;;;15.40;99.90;;;;;;6272940;22;20398;-90
2023/10/09 02:18:52;;;;;;;60.47;32.97;;;15.00;99.90;;;;;;6270217;22;20370;-90
2023/10/09 02:21:28;;;;;;;61.63;31.92;;;15.10;99.90;;;;;;6247763;22;20742;-89
2023/10/09 02:23:56;;;;;;;64.07;34.07;;;15.30;99.90;;;;;;6271617;22;20372;-89
2023/10/09 02:26:26;;;;;;;72.13;34.78;;;15.10;99.90;;;;;;6241247;22;20419;-90
2023/10/09 02:28:58;;;;;;;74.13;36.47;;;15.60;99.90;;;;;;6242501;22;20372;-90
2023/10/09 02:31:35;;;;;;;70.75;36.78;;;14.90;99.90;;;;;;6240068;22;20380;-90
2023/10/09 02:34:04;;;;;;;73.63;36.92;;;15.80;99.90;;;;;;6217127;22;20833;-89
2023/10/09 02:36:30;;;;;;;73.37;36.17;;;15.20;99.90;;;;;;6215081;22;20369;-90
2023/10/09 02:38:56;;;;;;;69.73;36.67;;;15.30;99.90;;;;;;6216743;22;20414;-90
2023/10/09 02:41:28;;;;;;;66.43;36.17;;;15.20;99.90;;;;;;6241397;22;20365;-89
2023/10/09 02:43:58;;;;;;;71.97;37.60;;;15.00;99.90;;;;;;6240734;22;20372;-89
2023/10/09 02:46:30;;;;;;;60.35;35.72;;;14.90;99.90;;;;;;6242142;22;20524;-90
2023/10/09 02:49:03;;;;;;;88.40;41.78;;;14.90;99.90;;;;;;6239714;22;20376;-88
2023/10/09 02:51:32;;;;;;;64.78;36.70;;;14.90;99.90;;;;;;6216685;22;20372;-91
2023/10/09 02:54:07;;;;;;;73.80;39.23;;;15.00;99.90;;;;;;6214524;22;20746;-89
2023/10/09 02:56:39;;;;;;;79.23;39.63;;;15.20;99.90;;;;;;6266769;22;20371;-90
2023/10/09 02:59:07;;;;;;;93.07;42.85;;;15.10;99.90;;;;;;6241871;22;20375;-89
2023/10/09 03:01:40;;;;;;;81.82;41.75;;;15.50;99.90;;;;;;6239562;22;20400;-88
2023/10/09 03:04:06;;;;;;;88.25;42.70;;;15.30;99.90;;;;;;6241691;22;20383;-89
2023/10/09 03:06:34;;;;;;;81.82;41.53;;;15.10;99.90;;;;;;6214693;22;20356;-90
2023/10/09 03:09:00;;;;;;;85.45;41.90;;;15.30;99.90;;;;;;6217160;22;20360;-90
2023/10/09 03:11:32;;;;;;;100.90;45.63;;;14.90;99.90;;;;;;6240881;22;20361;-90
2023/10/09 03:13:57;;;;;;;87.40;42.73;;;15.20;99.90;;;;;;6241283;22;20914;-90
2023/10/09 03:16:23;;;;;;;82.82;43.00;;;15.30;99.90;;;;;;6242392;22;20437;-88
2023/10/09 03:18:52;;;;;;;87.45;42.72;;;15.50;99.90;;;;;;6214507;22;20451;-90
2023/10/09 03:21:19;;;;;;;91.57;44.78;;;15.20;99.90;;;;;;6242130;22;20360;-90
2023/10/09 03:23:51;;;;;;;80.47;42.70;;;14.90;99.90;;;;;;6265628;22;20364;-90
2023/10/09 03:26:20;;;;;;;96.30;45.30;;;15.30;99.90;;;;;;6266606;22;20375;-89
2023/10/09 03:28:49;;;;;;;91.35;44.90;;;15.00;99.90;;;;;;6266339;22;20376;-90
2023/10/09 03:31:15;;;;;;;94.68;45.60;;;15.00;99.90;;;;;;6266774;22;20368;-89
2023/10/09 03:33:41;;;;;;;96.00;45.70;;;15.30;99.90;;;;;;6267573;22;20849;-88
2023/10/09 03:36:10;;;;;;;88.40;44.95;;;15.60;99.90;;;;;;6264529;22;20375;-90
2023/10/09 03:38:38;;;;;;;88.57;43.58;;;15.40;99.90;;;;;;6267297;22;20387;-90
2023/10/09 03:41:05;;;;;;;89.95;44.72;;;15.20;99.90;;;;;;6265399;22;20365;-89
2023/10/09 03:43:37;;;;;;;77.68;41.75;;;15.40;99.90;;;;;;6268008;22;20757;-89
2023/10/09 03:46:05;;;;;;;81.47;42.63;;;15.40;99.90;;;;;;6240286;22;20409;-88
2023/10/09 03:48:36;;;;;;;84.18;42.70;;;15.40;99.90;;;;;;6266641;22;20388;-89
2023/10/09 03:51:45;;;;;;;66.63;37.80;;;15.40;99.90;;;;;;6267505;22;20371;-90
2023/10/09 03:53:54;;;;;;;60.80;35.63;;;15.40;99.90;;;;;;6261201;22;20383;-90
2023/10/09 03:56:21;;;;;;;62.63;35.35;;;15.50;99.90;;;;;;6242079;22;20442;-90
2023/10/09 03:58:49;;;;;;;55.40;32.60;;;15.50;99.90;;;;;;6240002;22;20849;-90
2023/10/09 04:01:29;;;;;;;49.30;30.67;;;15.80;99.90;;;;;;6240909;22;20367;-90
2023/10/09 04:04:01;;;;;;;49.92;29.13;;;15.60;99.90;;;;;;6267455;22;20373;-90
2023/10/09 04:06:33;;;;;;;47.03;29.65;;;15.70;99.90;;;;;;6267458;22;21149;-90
2023/10/09 04:11:46;;;;;;;42.22;27.38;;;15.80;99.90;;;;;;6267630;22;20388;-90
2023/10/09 04:14:26;;;;;;;46.50;27.57;;;15.80;99.90;;;;;;6269465;22;20419;-91
2023/10/09 04:16:52;;;;;;;42.40;27.05;;;15.90;99.90;;;;;;6242793;22;20404;-91
2023/10/09 04:19:22;;;;;;;50.33;28.65;;;16.20;99.90;;;;;;6240603;22;20379;-90
2023/10/09 04:21:55;;;;;;;49.58;29.17;;;16.30;99.90;;;;;;6243152;22;20364;-90
2023/10/09 04:26:46;;;;;;;46.72;27.65;;;16.30;99.90;;;;;;6275060;22;21107;-91
2023/10/09 04:29:37;;;;;;;44.07;26.17;;;16.00;99.90;;;;;;6247209;22;20408;-90
2023/10/09 04:32:07;;;;;;;45.88;27.35;;;15.70;99.90;;;;;;6247752;22;20370;-90
2023/10/09 04:34:37;;;;;;;42.03;25.60;;;16.00;99.90;;;;;;6275119;22;20371;-91
2023/10/09 04:39:48;;;;;;;38.60;23.48;;;16.40;99.90;;;;;;6273643;22;20453;-89
2023/10/09 04:48:06;;;;;;;49.20;27.05;;;16.10;99.90;;;;;;6274341;22;20395;-90
2023/10/09 04:52:56;;;;;;;39.83;23.52;;;16.10;99.90;;;;;;6274174;22;20375;-90
2023/10/09 04:55:24;;;;;;;39.03;21.93;;;16.50;99.90;;;;;;6273207;22;20496;-90
2023/10/09 04:58:13;;;;;;;37.55;21.55;;;16.30;99.90;;;;;;6273362;22;20735;-90
2023/10/09 05:03:12;;;;;;;37.13;20.23;;;16.20;99.90;;;;;;6272166;22;20440;-91
2023/10/09 05:08:21;;;;;;;30.33;18.83;;;16.10;99.90;;;;;;6271815;22;20467;-89
2023/10/09 05:16:25;;;;;;;33.28;19.15;;;16.10;99.90;;;;;;6271879;22;20370;-89
2023/10/09 05:19:08;;;;;;;35.63;18.80;;;16.10;99.90;;;;;;6248089;22;20371;-90
2023/10/09 05:21:36;;;;;;;28.30;17.02;;;16.20;99.90;;;;;;6272910;22;20835;-89
2023/10/09 05:32:05;;;;;;;31.23;16.77;;;16.20;99.90;;;;;;6274184;22;20839;-89
2023/10/09 05:34:34;;;;;;;30.02;16.00;;;16.20;99.90;;;;;;6247772;22;20441;-90
2023/10/09 05:37:25;;;;;;;29.50;16.20;;;16.20;99.90;;;;;;6246933;22;20427;-90
2023/10/09 05:42:42;;;;;;;29.48;16.38;;;16.30;99.90;;;;;;6272141;22;20362;-91
2023/10/09 05:46:15;;;;;;;25.83;14.48;;;16.30;99.90;;;;;;6274118;22;20417;-91
2023/10/09 05:51:10;;;;;;;31.98;16.33;;;16.30;99.90;;;;;;6272071;22;20443;-91
2023/10/09 06:04:33;;;;;;;31.00;16.58;;;16.40;99.90;;;;;;6271721;22;20459;-91
2023/10/09 06:07:12;;;;;;;33.58;16.42;;;16.30;99.90;;;;;;6273289;22;20390;-90
2023/10/09 06:09:49;;;;;;;27.35;15.65;;;16.30;99.90;;;;;;6247996;22;20880;-91
2023/10/09 06:12:49;;;;;;;27.90;15.65;;;16.30;99.90;;;;;;6246483;22;20746;-90
2023/10/09 06:18:25;;;;;;;28.63;14.23;;;16.30;99.90;;;;;;6273622;22;20370;-90
2023/10/09 06:21:08;;;;;;;33.85;15.93;;;16.30;99.90;;;;;;6271717;22;20392;-89
2023/10/09 06:24:15;;;;;;;26.33;15.15;;;16.30;99.90;;;;;;6273612;22;20378;-91
2023/10/09 06:26:25;;;;;;;29.77;15.05;;;16.40;99.90;;;;;;6260251;22;20370;-91
2023/10/09 06:29:14;;;;;;;32.07;15.43;;;16.30;99.90;;;;;;6271582;22;20370;-89
2023/10/09 06:34:32;;;;;;;23.70;13.80;;;16.40;99.90;;;;;;6271275;22;20807;-91
2023/10/09 06:37:03;;;;;;;29.50;14.52;;;16.70;99.90;;;;;;6273428;22;20374;-90
2023/10/09 06:47:41;;;;;;;37.30;18.30;;;16.20;99.90;;;;;;6251832;22;21194;-90
2023/10/09 06:56:05;;;;;;;45.78;21.23;;;16.50;99.90;;;;;;6221306;22;20375;-91
2023/10/09 06:58:41;;;;;;;77.70;28.65;;;16.40;99.90;;;;;;6274289;22;20885;-92
2023/10/09 07:01:19;;;;;;;60.70;27.13;;;16.00;99.90;;;;;;6247872;22;20487;-90
2023/10/09 07:03:59;;;;;;;64.70;27.40;;;16.10;99.90;;;;;;6246375;22;20359;-89
2023/10/09 07:09:42;;;;;;;70.60;28.10;;;16.10;99.90;;;;;;6271294;22;20375;-90
2023/10/09 07:17:43;;;;;;;77.10;30.85;;;16.00;99.90;;;;;;6271770;22;20805;-90
2023/10/09 07:22:53;;;;;;;75.45;30.35;;;16.10;99.90;;;;;;6273085;22;20375;-90
2023/10/09 07:28:18;;;;;;;62.33;27.50;;;16.60;99.90;;;;;;6268165;22;20392;-91
2023/10/09 07:30:46;;;;;;;72.15;29.30;;;16.10;99.90;;;;;;6266236;22;20849;-89
2023/10/09 07:38:08;;;;;;;83.22;31.35;;;16.10;99.90;;;;;;6267735;22;20372;-91
2023/10/09 07:43:28;;;;;;;59.37;26.30;;;16.20;99.90;;;;;;6268275;22;20368;-91
2023/10/09 07:48:26;;;;;;;83.07;31.23;;;16.20;99.90;;;;;;6268222;22;20392;-90
2023/10/09 07:50:57;;;;;;;56.33;25.63;;;16.20;99.90;;;;;;6243710;22;20399;-90
2023/10/09 07:53:26;;;;;;;59.15;26.08;;;16.20;99.90;;;;;;6244768;22;20422;-91
2023/10/09 07:56:06;;;;;;;53.47;23.25;;;16.20;99.90;;;;;;6267545;22;20364;-90
2023/10/09 07:58:33;;;;;;;61.60;26.25;;;16.60;99.90;;;;;;6244293;22;20368;-90
2023/10/09 08:01:15;;;;;;;56.10;23.15;;;16.30;99.90;;;;;;6267537;22;20433;-89
2023/10/09 08:03:47;;;;;;;79.55;29.58;;;16.20;99.90;;;;;;6269837;22;20368;-90
2023/10/09 08:14:42;;;;;;;60.92;25.85;;;16.20;99.90;;;;;;6267745;22;20368;-89
2023/10/09 08:17:15;;;;;;;59.38;25.15;;;16.70;99.90;;;;;;6268133;22;20729;-90
2023/10/09 08:19:55;;;;;;;58.80;24.48;;;16.20;99.90;;;;;;6269620;22;20368;-90
2023/10/09 08:24:58;;;;;;;56.83;24.98;;;17.10;99.90;;;;;;6270920;22;20369;-93
2023/10/09 08:33:00;;;;;;;71.55;28.85;;;16.20;99.90;;;;;;6271453;22;20414;-94
2023/10/09 08:35:32;;;;;;;81.85;30.42;;;16.20;99.90;;;;;;6241869;22;20368;-94
2023/10/09 08:38:03;;;;;;;71.03;27.73;;;16.20;99.90;;;;;;6244813;22;20392;-94
2023/10/09 08:40:33;;;;;;;85.95;29.38;;;16.20;99.90;;;;;;6243678;22;20361;-95
2023/10/09 08:43:14;;;;;;;68.17;26.53;;;16.40;99.90;;;;;;6246306;22;20910;-96
2023/10/09 08:45:53;;;;;;;66.28;26.63;;;16.10;99.90;;;;;;6245146;22;20460;-94
2023/10/09 08:48:21;;;;;;;81.32;30.02;;;16.10;99.90;;;;;;6243534;22;20640;-95
2023/10/09 08:50:54;;;;;;;79.13;28.58;;;16.20;99.90;;;;;;6244536;22;20360;-94
2023/10/09 08:53:20;;;;;;;72.43;28.08;;;16.30;99.90;;;;;;6243022;22;20365;-94
2023/10/09 08:55:47;;;;;;;72.97;27.35;;;16.50;99.90;;;;;;6245617;22;20360;-94
2023/10/09 08:58:24;;;;;;;64.28;25.25;;;16.70;99.90;;;;;;6269775;22;20369;-95
2023/10/09 09:00:51;;;;;;;76.65;28.75;;;16.80;99.90;;;;;;6243710;22;20360;-94
2023/10/09 09:03:19;;;;;;;62.00;26.20;;;16.80;99.90;;;;;;6245345;22;20364;-94
2023/10/09 09:05:57;;;;;;;74.85;26.52;;;16.40;99.90;;;;;;6242920;22;20376;-93
2023/10/09 09:08:25;;;;;;;68.10;26.08;;;16.50;99.90;;;;;;6271235;22;20392;-95
2023/10/09 09:11:11;;;;;;;69.88;27.48;;;16.90;99.90;;;;;;6268468;22;20442;-94
2023/10/09 09:14:08;;;;;;;62.30;24.42;;;16.50;99.90;;;;;;6249511;22;20480;-96
2023/10/09 09:16:48;;;;;;;59.78;24.77;;;16.50;99.90;;;;;;6271865;22;20364;-96
2023/10/09 09:19:22;;;;;;;61.22;23.65;;;16.70;99.90;;;;;;6246099;22;20360;-96
2023/10/09 09:21:54;;;;;;;59.08;23.77;;;17.40;99.90;;;;;;6246949;22;20365;-94
2023/10/09 09:27:18;;;;;;;61.67;24.88;;;17.00;99.90;;;;;;6276328;22;20691;-94
2023/10/09 09:29:54;;;;;;;56.25;23.40;;;17.00;99.90;;;;;;6250186;22;20432;-95
2023/10/09 09:32:35;;;;;;;62.72;24.50;;;16.70;99.90;;;;;;6248002;22;20362;-94
2023/10/09 09:35:04;;;;;;;72.30;27.37;;;17.00;99.90;;;;;;6250583;22;20371;-95
2023/10/09 09:37:50;;;;;;;53.15;22.92;;;16.70;99.90;;;;;;6247634;22;20378;-95
2023/10/09 09:40:28;;;;;;;59.78;25.38;;;16.80;99.90;;;;;;6248116;22;20362;-94
2023/10/09 09:43:11;;;;;;;65.10;25.73;;;16.70;99.90;;;;;;6275750;22;20373;-95
2023/10/09 09:45:38;;;;;;;53.70;23.58;;;17.30;99.90;;;;;;6247847;22;20820;-94
2023/10/09 09:48:12;;;;;;;58.10;25.73;;;17.00;99.90;;;;;;6250398;22;20386;-95
2023/10/09 09:50:43;;;;;;;66.18;26.13;;;16.70;99.90;;;;;;6248007;22;20371;-94
2023/10/09 09:53:16;;;;;;;54.33;24.60;;;17.00;99.90;;;;;;6251391;22;20363;-95
2023/10/09 09:55:59;;;;;;;52.65;23.23;;;16.90;99.90;;;;;;6250422;22;20423;-92
2023/10/09 09:58:47;;;;;;;54.03;24.67;;;17.20;99.90;;;;;;6250263;22;20379;-94
2023/10/09 10:01:22;;;;;;;55.50;24.80;;;16.70;99.90;;;;;;6276169;22;20461;-94
2023/10/09 10:03:59;;;;;;;53.10;23.80;;;17.10;99.90;;;;;;6246933;22;20367;-96
2023/10/09 10:06:27;;;;;;;63.23;27.67;;;16.70;99.90;;;;;;6248733;22;21147;-95
2023/10/09 10:08:54;;;;;;;57.58;23.50;;;17.00;99.90;;;;;;6248865;22;20471;-93
2023/10/09 10:11:45;;;;;;;64.78;26.65;;;16.90;99.90;;;;;;6248719;22;20724;-93
2023/10/09 10:14:21;;;;;;;66.88;26.10;;;16.80;99.90;;;;;;6249796;22;20700;-91
2023/10/09 10:17:21;;;;;;;55.60;23.15;;;17.20;99.90;;;;;;6272944;22;20751;-94
2023/10/09 10:22:47;;;;;;;52.50;23.90;;;16.80;99.90;;;;;;6274954;22;20381;-92
2023/10/09 10:25:41;;;;;;;51.35;24.10;;;17.20;99.90;;;;;;6246034;22;20371;-94
2023/10/09 10:28:42;;;;;;;41.80;18.67;;;17.10;99.90;;;;;;6248144;22;20390;-92
2023/10/09 10:31:09;;;;;;;51.10;22.35;;;16.80;99.90;;;;;;6249180;22;20378;-96
2023/10/09 10:33:56;;;;;;;52.17;21.35;;;17.10;99.90;;;;;;6272184;22;21088;-96
2023/10/09 10:36:26;;;;;;;55.97;23.77;;;16.70;99.90;;;;;;6248763;22;20377;-93
2023/10/09 10:39:09;;;;;;;61.53;25.23;;;16.80;99.90;;;;;;6247844;22;20394;-94
2023/10/09 10:41:51;;;;;;;43.08;20.70;;;17.20;99.90;;;;;;6247540;22;20402;-92
2023/10/09 10:44:34;;;;;;;41.77;19.67;;;17.90;99.90;;;;;;6248651;22;20423;-93
2023/10/09 10:47:00;;;;;;;44.05;19.55;;;17.10;99.90;;;;;;6246206;22;20478;-92
2023/10/09 10:49:36;;;;;;;43.67;19.23;;;17.20;99.90;;;;;;6248607;22;20359;-94
2023/10/09 10:52:15;;;;;;;42.20;17.77;;;17.40;99.90;;;;;;6248111;22;20409;-94
2023/10/09 10:57:28;;;;;;;39.08;17.00;;;16.90;99.90;;;;;;6274816;22;20402;-92
2023/10/09 11:00:12;;;;;;;43.47;16.08;;;17.20;99.90;;;;;;6246466;22;20373;-93
2023/10/09 11:02:40;;;;;;;51.10;20.33;;;17.30;99.90;;;;;;6248565;22;20362;-93
2023/10/09 11:05:25;;;;;;;33.95;15.75;;;17.20;99.90;;;;;;6247995;22;20362;-93
2023/10/09 11:07:57;;;;;;;40.83;17.33;;;17.00;99.90;;;;;;6246874;22;20393;-91
2023/10/09 11:10:28;;;;;;;32.47;13.77;;;17.00;99.90;;;;;;6248997;22;20696;-92
2023/10/09 11:15:46;;;;;;;26.33;12.23;;;17.00;99.90;;;;;;6275711;22;20408;-92
2023/10/09 11:18:19;;;;;;;26.90;10.50;;;17.00;99.90;;;;;;6250135;22;20869;-91
2023/10/09 11:28:57;;;;;;;21.88;9.25;;;17.40;99.90;;;;;;6274853;22;20981;-93
2023/10/09 11:31:23;;;;;;;20.70;8.43;;;16.90;99.90;;;;;;6250173;22;20367;-92
2023/10/09 11:33:53;;;;;;;19.20;8.65;;;17.30;99.90;;;;;;6248560;22;20370;-92
2023/10/09 11:36:32;;;;;;;19.73;8.20;;;17.00;99.90;;;;;;6250466;22;20848;-91
2023/10/09 11:39:20;;;;;;;17.58;7.82;;;17.00;99.90;;;;;;6248124;22;20831;-93
2023/10/09 11:41:49;;;;;;;19.55;7.03;;;17.10;99.90;;;;;;6250453;22;20362;-93
2023/10/09 11:44:25;;;;;;;16.27;6.60;;;17.40;99.90;;;;;;6249886;22;20366;-93
2023/10/09 11:46:58;;;;;;;17.45;5.03;;;17.60;99.90;;;;;;6249178;22;20373;-91
2023/10/09 11:49:34;;;;;;;16.80;4.88;;;17.50;99.90;;;;;;6249817;22;20437;-92
2023/10/09 11:52:35;;;;;;;14.93;4.68;;;17.50;99.90;;;;;;6248013;22;20359;-93
2023/10/09 11:54:56;;;;;;;13.43;3.50;;;17.60;99.90;;;;;;6275481;22;20384;-93
2023/10/09 11:57:30;;;;;;;14.93;3.92;;;17.80;99.90;;;;;;6251012;22;20406;-93
2023/10/09 12:00:00;;;;;;;15.40;4.55;;;17.90;99.90;;;;;;6248128;22;20370;-93
2023/10/09 12:02:26;;;;;;;16.42;4.20;;;17.50;99.90;;;;;;6250737;22;20359;-92
2023/10/09 12:04:54;;;;;;;12.95;3.40;;;18.20;99.90;;;;;;6248012;22;20846;-90
2023/10/09 12:07:20;;;;;;;15.37;4.40;;;17.70;99.90;;;;;;6275780;22;20418;-91
2023/10/09 12:09:48;;;;;;;11.75;3.30;;;17.70;99.90;;;;;;6248442;22;20454;-91
2023/10/09 12:12:13;;;;;;;16.27;4.43;;;17.10;99.90;;;;;;6249453;22;21101;-92
2023/10/09 12:14:39;;;;;;;17.07;4.80;;;17.40;99.90;;;;;;6250071;22;20374;-91
2023/10/09 12:17:06;;;;;;;16.27;4.00;;;17.40;99.90;;;;;;6274055;22;20378;-92
2023/10/09 12:19:38;;;;;;;14.05;4.18;;;17.50;99.90;;;;;;6250232;22;20363;-91
2023/10/09 12:22:16;;;;;;;14.50;3.92;;;17.10;99.90;;;;;;6273152;22;20378;-91
2023/10/09 12:24:43;;;;;;;14.15;4.63;;;17.80;99.90;;;;;;6249849;22;20382;-92
2023/10/09 12:27:12;;;;;;;16.83;5.00;;;17.80;99.90;;;;;;6248112;22;20394;-91
2023/10/09 12:29:44;;;;;;;11.55;3.45;;;17.40;99.90;;;;;;6249475;22;20355;-92
2023/10/09 12:32:11;;;;;;;12.40;3.90;;;17.30;99.90;;;;;;6249653;22;20367;-91
2023/10/09 12:34:38;;;;;;;8.60;3.00;;;17.30;99.90;;;;;;6247930;22;20532;-93
2023/10/09 12:37:04;;;;;;;12.48;3.72;;;17.40;99.90;;;;;;6250659;22;20490;-94
2023/10/09 12:39:33;;;;;;;14.05;4.25;;;17.80;99.90;;;;;;6248095;22;20375;-93
2023/10/09 12:42:06;;;;;;;12.27;3.22;;;17.60;99.90;;;;;;6250398;22;20362;-95
2023/10/09 12:44:42;;;;;;;7.43;2.75;;;17.70;99.90;;;;;;6248663;22;20366;-94
2023/10/09 12:47:11;;;;;;;12.82;4.20;;;17.70;99.90;;;;;;6249354;22;20448;-92
2023/10/09 12:49:40;;;;;;;9.57;3.10;;;17.60;99.90;;;;;;6250142;22;20402;-92
2023/10/09 12:52:15;;;;;;;7.87;2.80;;;17.40;99.90;;;;;;6248154;22;20366;-92
2023/10/09 12:54:42;;;;;;;12.48;3.33;;;17.40;99.90;;;;;;6250259;22;20359;-93
2023/10/09 12:57:13;;;;;;;10.68;3.40;;;18.10;99.90;;;;;;6247475;22;20362;-93
2023/10/09 12:59:44;;;;;;;11.70;3.47;;;17.90;99.90;;;;;;6250591;22;20731;-94
2023/10/09 13:02:12;;;;;;;10.10;3.60;;;17.60;99.90;;;;;;6248934;22;20374;-94
2023/10/09 13:04:41;;;;;;;11.43;4.00;;;18.00;99.90;;;;;;6274267;22;20408;-93
2023/10/09 13:07:07;;;;;;;14.70;4.38;;;17.80;99.90;;;;;;6249937;22;20390;-93
2023/10/09 13:09:42;;;;;;;10.98;4.13;;;18.00;99.90;;;;;;6247333;22;20369;-93
2023/10/09 13:12:17;;;;;;;9.52;3.70;;;17.50;99.90;;;;;;6250114;22;20393;-93
2023/10/09 13:14:47;;;;;;;11.52;3.92;;;17.70;99.90;;;;;;6247576;22;20456;-92
2023/10/09 13:17:13;;;;;;;9.75;4.10;;;18.00;99.90;;;;;;6249537;22;20451;-93
2023/10/09 13:19:39;;;;;;;12.20;3.97;;;17.70;99.90;;;;;;6249625;22;20370;-94
2023/10/09 13:22:12;;;;;;;11.00;4.03;;;18.10;99.90;;;;;;6247961;22;20810;-94
2023/10/09 13:24:39;;;;;;;10.73;3.70;;;17.80;99.90;;;;;;6249633;22;21107;-93
2023/10/09 13:27:04;;;;;;;9.47;2.70;;;18.20;99.90;;;;;;6247369;22;20393;-93
2023/10/09 13:29:33;;;;;;;12.33;3.40;;;18.20;99.90;;;;;;6249322;22;20370;-92
2023/10/09 13:32:02;;;;;;;8.32;2.83;;;18.00;99.90;;;;;;6272772;22;20369;-94
2023/10/09 13:34:28;;;;;;;7.22;2.47;;;18.20;99.90;;;;;;6275120;22;20363;-95
2023/10/09 13:36:55;;;;;;;7.37;2.90;;;18.40;99.90;;;;;;6248984;22;20378;-94
2023/10/09 13:39:24;;;;;;;7.10;2.15;;;17.90;99.90;;;;;;6248554;22;20505;-93
2023/10/09 13:41:58;;;;;;;6.78;2.25;;;18.00;99.90;;;;;;6250356;22;20367;-91
2023/10/09 13:44:30;;;;;;;10.23;3.30;;;17.90;99.90;;;;;;6247612;22;20359;-92
2023/10/09 13:46:56;;;;;;;7.93;2.80;;;18.40;99.90;;;;;;6242901;22;20782;-92
2023/10/09 13:49:22;;;;;;;8.38;3.00;;;18.10;99.90;;;;;;6247905;22;20358;-93
2023/10/09 13:51:50;;;;;;;8.63;3.10;;;18.40;99.90;;;;;;6249470;22;20890;-94
2023/10/09 13:54:38;;;;;;;8.52;2.30;;;18.10;99.90;;;;;;6248859;22;20531;-94
2023/10/09 13:57:05;;;;;;;7.78;2.03;;;18.20;99.90;;;;;;6247273;22;20370;-94
2023/10/09 13:59:35;;;;;;;6.53;1.95;;;18.00;99.90;;;;;;6249889;22;20435;-93
2023/10/09 14:02:02;;;;;;;5.90;2.33;;;17.70;99.90;;;;;;6247320;22;20486;-93
2023/10/09 14:04:28;;;;;;;9.13;2.27;;;18.10;99.90;;;;;;6249083;22;20776;-92
2023/10/09 14:06:56;;;;;;;9.20;2.35;;;18.20;99.90;;;;;;6247781;22;20444;-92
2023/10/09 14:09:31;;;;;;;8.10;2.58;;;17.50;99.90;;;;;;6274598;22;20393;-92
2023/10/09 14:12:09;;;;;;;10.40;2.50;;;17.60;99.90;;;;;;6249885;22;20370;-92
2023/10/09 14:14:46;;;;;;;7.78;2.70;;;17.90;99.90;;;;;;6247745;22;20721;-93
2023/10/09 14:17:13;;;;;;;8.10;2.40;;;18.20;99.90;;;;;;6274945;22;20381;-92
2023/10/09 14:19:49;;;;;;;11.13;2.78;;;17.50;99.90;;;;;;6247075;22;20434;-91
2023/10/09 14:22:24;;;;;;;7.32;2.45;;;17.50;99.90;;;;;;6249293;22;20374;-93
2023/10/09 14:24:55;;;;;;;9.60;2.80;;;17.40;99.90;;;;;;6248689;22;20398;-93
2023/10/09 14:27:25;;;;;;;8.48;2.38;;;17.70;99.90;;;;;;6272640;22;20397;-93
2023/10/09 14:29:55;;;;;;;10.02;2.42;;;17.30;99.90;;;;;;6249816;22;20397;-93
2023/10/09 14:32:28;;;;;;;8.13;2.17;;;17.40;99.90;;;;;;6247288;22;20394;-93
2023/10/09 14:35:00;;;;;;;8.60;2.58;;;17.40;99.90;;;;;;6249521;22;20362;-94
2023/10/09 14:37:26;;;;;;;6.32;2.20;;;17.30;99.90;;;;;;6248215;22;20367;-92
2023/10/09 14:39:52;;;;;;;8.93;2.27;;;17.60;99.90;;;;;;6248447;22;20378;-92
2023/10/09 14:42:20;;;;;;;6.20;2.00;;;17.70;99.90;;;;;;6249254;22;20712;-94
2023/10/09 14:44:46;;;;;;;6.65;1.90;;;17.80;99.90;;;;;;6247305;22;20402;-93
2023/10/09 14:47:14;;;;;;;8.60;2.50;;;17.20;99.90;;;;;;6249928;22;20443;-92
2023/10/09 14:49:46;;;;;;;10.38;2.72;;;17.40;99.90;;;;;;6272381;22;20398;-93
2023/10/09 14:52:16;;;;;;;7.55;2.72;;;17.90;99.90;;;;;;6274714;22;20366;-93
2023/10/09 14:54:45;;;;;;;9.65;2.80;;;17.20;99.90;;;;;;6248127;22;20400;-93
2023/10/09 14:57:11;;;;;;;10.05;2.83;;;17.30;99.90;;;;;;6248869;22;20378;-91
2023/10/09 14:59:38;;;;;;;8.68;2.30;;;17.20;99.90;;;;;;6274849;22;20390;-91
2023/10/09 15:02:05;;;;;;;6.45;2.25;;;17.40;99.90;;;;;;6272741;22;20359;-93
2023/10/09 15:04:34;;;;;;;8.73;2.20;;;17.40;99.90;;;;;;6249376;22;20367;-93
2023/10/09 15:07:01;;;;;;;11.23;2.23;;;17.70;99.90;;;;;;6247191;22;20355;-93
2023/10/09 15:09:29;;;;;;;7.10;2.25;;;17.80;99.90;;;;;;6274590;22;20696;-92
2023/10/09 15:11:55;;;;;;;7.95;2.08;;;17.40;99.90;;;;;;6273210;22;20492;-93
2023/10/09 15:14:21;;;;;;;6.93;1.70;;;17.40;99.90;;;;;;6248457;22;20413;-92
2023/10/09 15:16:47;;;;;;;7.67;1.60;;;17.70;99.90;;;;;;6249117;22;20680;-92
2023/10/09 15:19:14;;;;;;;7.72;1.75;;;17.40;99.90;;;;;;6247073;22;20873;-93